Time;durP1;ratioP1;P1;durP2;ratioP2;P2;SDS_P1;SDS_P2;PMS_P1;PMS_P2;Temp;Humidity;BMP_temperature;BMP_pressure;BME280_temperature;BME280_humidity;BME280_pressure;Samples;Min_cycle;Max_cycle;Signal;HPM_P1;HPM_P2
2022/03/09 00:00:06;;;;;;;16.72;9.32;;;;;;;8.75;30.27;100150.97;342083;28;1988;-69
2022/03/09 00:00:21;;;;;;;17.58;9.27;;;;;;;8.75;29.80;100157.03;341952;28;1264;-69
2022/03/09 00:00:33;;;;;;;15.93;8.85;;;;;;;8.75;30.22;100157.03;342395;28;1338;-68
2022/03/09 00:00:45;;;;;;;15.82;9.27;;;;;;;8.72;29.86;100154.47;342072;28;1370;-69
2022/03/09 00:00:58;;;;;;;15.80;9.27;;;;;;;8.69;29.65;100156.25;342254;28;1016;-69
2022/03/09 00:01:10;;;;;;;15.63;9.40;;;;;;;8.69;30.44;100154.56;342217;28;1072;-69
2022/03/09 00:01:22;;;;;;;14.73;9.20;;;;;;;8.75;30.44;100162.22;342104;28;1500;-69
2022/03/09 00:01:35;;;;;;;14.77;8.52;;;;;;;8.83;30.15;100158.63;342122;28;922;-69
2022/03/09 00:01:47;;;;;;;16.23;8.68;;;;;;;8.83;30.12;100159.47;342105;28;1887;-69
2022/03/09 00:01:59;;;;;;;16.40;9.00;;;;;;;8.82;30.00;100156.94;342210;28;1272;-69
2022/03/09 00:02:11;;;;;;;15.15;9.07;;;;;;;8.85;29.92;100156.88;341868;28;2025;-69
2022/03/09 00:02:23;;;;;;;14.43;8.82;;;;;;;8.83;29.59;100159.47;342868;28;1170;-69
2022/03/09 00:02:35;;;;;;;14.98;8.90;;;;;;;8.84;29.91;100150.84;342283;28;1179;-69
2022/03/09 00:02:48;;;;;;;15.85;8.82;;;;;;;8.78;29.54;100156.13;342298;28;1038;-69
2022/03/09 00:03:00;;;;;;;15.52;8.68;;;;;;;8.82;29.97;100162.13;342260;28;1767;-69
2022/03/09 00:03:12;;;;;;;17.00;9.00;;;;;;;8.83;29.87;100156.03;340974;29;1065;-69
2022/03/09 00:03:24;;;;;;;18.15;9.20;;;;;;;8.74;30.28;100157.91;342121;28;1547;-69
2022/03/09 00:03:36;;;;;;;17.80;9.70;;;;;;;8.73;30.53;100169.16;341805;28;1034;-69
2022/03/09 00:03:49;;;;;;;15.52;9.80;;;;;;;8.71;30.13;100163.16;342088;28;1320;-69
2022/03/09 00:04:01;;;;;;;15.35;9.75;;;;;;;8.76;30.00;100161.31;342172;28;1135;-69
2022/03/09 00:04:13;;;;;;;15.45;9.27;;;;;;;8.74;30.06;100162.25;342198;28;1051;-69
2022/03/09 00:04:25;;;;;;;16.17;9.30;;;;;;;8.70;30.57;100163.19;342164;28;1830;-69
2022/03/09 00:04:37;;;;;;;18.00;9.13;;;;;;;8.75;29.66;100164.81;342194;28;1043;-69
2022/03/09 00:04:49;;;;;;;18.65;9.23;;;;;;;8.79;30.19;100163.88;342138;28;1030;-69
2022/03/09 00:05:01;;;;;;;17.52;9.60;;;;;;;8.72;30.30;100162.25;342127;28;1565;-69
2022/03/09 00:05:13;;;;;;;18.42;9.73;;;;;;;8.85;29.84;100162.03;342312;28;1051;-69
2022/03/09 00:05:26;;;;;;;18.23;9.35;;;;;;;8.83;30.07;100158.63;342442;28;1107;-69
2022/03/09 00:05:38;;;;;;;17.95;9.52;;;;;;;8.86;30.24;100162.03;342142;28;1357;-69
2022/03/09 00:05:50;;;;;;;15.95;9.18;;;;;;;8.86;29.94;100158.59;342464;28;1253;-69
2022/03/09 00:06:02;;;;;;;17.27;9.43;;;;;;;8.79;30.17;100163.00;342434;28;1298;-69
2022/03/09 00:06:15;;;;;;;16.27;9.38;;;;;;;8.84;30.17;100163.78;342487;28;1160;-69
2022/03/09 00:06:30;;;;;;;16.42;9.20;;;;;;;8.86;29.46;100156.84;342456;28;1031;-69
2022/03/09 00:06:42;;;;;;;16.55;9.20;;;;;;;8.85;29.48;100156.88;341611;28;2236;-69
2022/03/09 00:06:54;;;;;;;16.27;9.23;;;;;;;8.82;29.66;100162.97;341153;28;1091;-68
2022/03/09 00:07:09;;;;;;;16.33;9.07;;;;;;;8.86;29.81;100168.97;340934;28;1244;-69
2022/03/09 00:07:21;;;;;;;16.35;9.15;;;;;;;8.92;29.83;100163.66;341087;28;1324;-69
2022/03/09 00:07:33;;;;;;;17.27;9.93;;;;;;;8.85;30.17;100155.13;342325;28;1326;-69
2022/03/09 00:07:45;;;;;;;16.85;9.75;;;;;;;8.76;30.05;100163.06;341992;28;1053;-69
2022/03/09 00:07:57;;;;;;;15.85;9.05;;;;;;;8.82;29.78;100167.31;342260;28;1175;-69
2022/03/09 00:08:10;;;;;;;17.33;8.93;;;;;;;8.80;29.77;100170.75;341443;28;1495;-68
2022/03/09 00:08:22;;;;;;;20.08;9.75;;;;;;;8.77;29.89;100165.66;342105;28;1464;-69
2022/03/09 00:08:34;;;;;;;19.73;9.77;;;;;;;8.74;29.65;100160.50;342067;28;1276;-69
2022/03/09 00:08:46;;;;;;;17.80;9.80;;;;;;;8.77;30.01;100160.47;342203;28;1145;-69
2022/03/09 00:08:58;;;;;;;16.00;9.32;;;;;;;8.73;29.61;100158.81;342204;28;1276;-69
2022/03/09 00:09:11;;;;;;;15.70;8.80;;;;;;;8.80;29.85;100156.94;342225;28;1151;-69
2022/03/09 00:09:23;;;;;;;16.35;9.00;;;;;;;8.78;29.92;100161.31;342096;28;1172;-70
2022/03/09 00:09:35;;;;;;;17.65;9.15;;;;;;;8.85;30.27;100162.03;342202;28;1047;-70
2022/03/09 00:09:47;;;;;;;21.08;9.80;;;;;;;8.94;30.04;100151.53;342550;28;1340;-70
2022/03/09 00:09:59;;;;;;;21.98;10.27;;;;;;;8.85;30.32;100162.91;343578;28;1204;-69
2022/03/09 00:10:11;;;;;;;18.08;9.88;;;;;;;8.94;30.21;100156.72;343459;28;1518;-69
2022/03/09 00:10:23;;;;;;;17.13;9.95;;;;;;;8.85;30.21;100156.88;341898;28;1859;-70
2022/03/09 00:10:35;;;;;;;17.40;9.60;;;;;;;8.93;30.17;100157.59;342151;28;1522;-70
2022/03/09 00:10:47;;;;;;;19.13;9.55;;;;;;;8.91;29.76;100156.75;342214;28;1047;-70
2022/03/09 00:10:59;;;;;;;19.48;9.43;;;;;;;8.94;29.91;100160.16;342185;28;1190;-69
2022/03/09 00:11:11;;;;;;;18.50;9.30;;;;;;;8.97;29.53;100156.63;342257;28;1329;-70
2022/03/09 00:11:23;;;;;;;18.75;9.27;;;;;;;8.96;29.95;100157.53;342109;28;1485;-70
2022/03/09 00:11:36;;;;;;;18.15;9.30;;;;;;;9.02;29.52;100160.03;340934;29;1226;-69
2022/03/09 00:11:51;;;;;;;17.05;9.40;;;;;;;9.04;29.91;100158.25;340841;29;1162;-69
2022/03/09 00:12:03;;;;;;;16.30;9.68;;;;;;;9.09;29.60;100161.59;341035;29;1295;-69
2022/03/09 00:12:15;;;;;;;18.55;9.65;;;;;;;9.08;29.43;100159.06;340980;28;1952;-69
2022/03/09 00:12:27;;;;;;;20.73;9.55;;;;;;;8.94;30.03;100157.56;342107;28;1518;-70
2022/03/09 00:12:39;;;;;;;21.40;9.75;;;;;;;8.89;30.28;100153.34;342586;28;1137;-70
2022/03/09 00:12:52;;;;;;;18.48;9.60;;;;;;;8.89;29.99;100153.34;342437;28;1047;-69
2022/03/09 00:13:04;;;;;;;17.50;9.15;;;;;;;8.93;29.84;100155.00;342204;28;1779;-69
2022/03/09 00:13:16;;;;;;;16.77;9.10;;;;;;;8.93;29.89;100165.34;342649;28;1237;-70
2022/03/09 00:13:28;;;;;;;15.95;9.43;;;;;;;8.95;29.93;100153.22;341871;28;1691;-70
2022/03/09 00:13:40;;;;;;;17.50;9.77;;;;;;;8.99;30.15;100152.28;340911;28;1131;-69
2022/03/09 00:13:52;;;;;;;18.15;9.38;;;;;;;9.06;29.84;100160.84;341170;28;1093;-70
2022/03/09 00:14:05;;;;;;;16.77;9.25;;;;;;;8.97;30.21;100154.06;341953;28;1685;-69
2022/03/09 00:14:17;;;;;;;17.33;9.32;;;;;;;9.01;30.19;100153.09;342612;28;1063;-70
2022/03/09 00:14:29;;;;;;;17.65;9.85;;;;;;;8.97;29.63;100156.63;342463;28;1635;-70
2022/03/09 00:14:41;;;;;;;18.38;9.77;;;;;;;8.92;30.19;100156.72;342662;28;1540;-69
2022/03/09 00:14:53;;;;;;;17.35;9.25;;;;;;;8.94;29.74;100156.72;343763;28;1251;-70
2022/03/09 00:15:06;;;;;;;15.88;8.93;;;;;;;8.94;29.89;100156.72;343839;28;1346;-70
2022/03/09 00:15:18;;;;;;;16.08;9.45;;;;;;;8.90;30.41;100155.06;343899;28;1315;-69
2022/03/09 00:15:30;;;;;;;18.00;9.82;;;;;;;8.88;30.35;100152.50;342732;28;1979;-70
2022/03/09 00:15:42;;;;;;;18.65;9.65;;;;;;;8.77;30.51;100164.75;342499;28;1249;-70
2022/03/09 00:15:54;;;;;;;17.75;9.73;;;;;;;8.76;30.52;100158.72;342227;28;1027;-70
2022/03/09 00:16:06;;;;;;;17.33;9.40;;;;;;;8.85;30.01;100162.03;342467;28;1209;-69
2022/03/09 00:16:19;;;;;;;19.55;9.70;;;;;;;8.84;29.93;100162.94;342238;28;1926;-70
2022/03/09 00:16:31;;;;;;;18.02;9.63;;;;;;;8.83;29.79;100161.22;342628;28;1094;-70
2022/03/09 00:16:43;;;;;;;17.35;9.45;;;;;;;8.74;30.24;100155.31;342606;28;1115;-70
2022/03/09 00:16:55;;;;;;;16.13;9.27;;;;;;;8.76;30.15;100163.91;342649;28;1059;-70
2022/03/09 00:17:07;;;;;;;15.35;9.20;;;;;;;8.73;30.41;100156.22;341920;28;1651;-70
2022/03/09 00:17:20;;;;;;;15.63;9.48;;;;;;;8.76;29.95;100161.31;341148;28;1007;-70
2022/03/09 00:17:32;;;;;;;15.13;9.35;;;;;;;8.74;30.52;100159.66;341149;28;1253;-69
2022/03/09 00:17:44;;;;;;;17.40;9.80;;;;;;;8.84;29.94;100166.38;341126;28;1055;-69
2022/03/09 00:17:56;;;;;;;18.38;9.65;;;;;;;8.85;30.34;100168.06;341765;28;1152;-69
2022/03/09 00:18:11;;;;;;;17.15;9.27;;;;;;;8.83;30.09;100167.25;343546;28;1105;-70
2022/03/09 00:18:23;;;;;;;16.13;9.23;;;;;;;8.79;30.28;100169.06;343287;28;1110;-70
2022/03/09 00:18:36;;;;;;;15.95;9.40;;;;;;;8.84;29.78;100170.72;342153;28;1110;-70
2022/03/09 00:18:47;;;;;;;15.80;9.50;;;;;;;8.78;30.34;100158.72;342140;28;1038;-70
2022/03/09 00:18:59;;;;;;;16.25;9.50;;;;;;;8.74;30.21;100164.84;342194;28;1048;-69
2022/03/09 00:19:12;;;;;;;16.73;9.48;;;;;;;8.74;29.91;100163.09;342200;28;1301;-70
2022/03/09 00:19:24;;;;;;;16.13;9.63;;;;;;;8.72;30.48;100169.19;342147;28;1473;-69
2022/03/09 00:19:36;;;;;;;16.10;9.85;;;;;;;8.72;30.33;100166.59;342062;28;1963;-70
2022/03/09 00:19:48;;;;;;;16.23;9.95;;;;;;;8.78;30.76;100163.91;342250;28;1083;-69
2022/03/09 00:20:00;;;;;;;17.77;9.10;;;;;;;8.72;30.27;100164.00;342170;28;1012;-69
2022/03/09 00:20:13;;;;;;;17.73;8.85;;;;;;;8.68;30.28;100159.75;342293;28;1063;-69
2022/03/09 00:20:25;;;;;;;17.05;9.13;;;;;;;8.70;30.12;100166.63;342345;28;1138;-70
2022/03/09 00:20:37;;;;;;;17.02;9.68;;;;;;;8.66;30.37;100166.69;342553;28;1324;-69
2022/03/09 00:20:49;;;;;;;17.60;9.48;;;;;;;8.65;30.82;100165.81;341978;28;1485;-69
2022/03/09 00:21:01;;;;;;;16.67;9.27;;;;;;;8.68;30.21;100168.38;342516;28;1270;-70
2022/03/09 00:21:14;;;;;;;16.00;9.20;;;;;;;8.67;30.78;100168.41;342256;28;1470;-69
2022/03/09 00:21:26;;;;;;;17.67;9.90;;;;;;;8.70;30.85;100164.03;342615;28;1679;-69
2022/03/09 00:21:38;;;;;;;17.15;9.73;;;;;;;8.69;30.90;100172.69;342302;28;1051;-70
2022/03/09 00:21:50;;;;;;;17.45;9.43;;;;;;;8.74;30.79;100170.88;342531;28;1091;-70
2022/03/09 00:22:03;;;;;;;17.67;9.50;;;;;;;8.70;30.10;100164.03;342458;28;1018;-69
2022/03/09 00:22:15;;;;;;;16.73;9.15;;;;;;;8.76;30.40;100174.28;341668;28;1873;-69
2022/03/09 00:22:27;;;;;;;17.40;9.25;;;;;;;8.73;30.79;100166.56;342154;28;1396;-69
2022/03/09 00:22:39;;;;;;;16.58;9.40;;;;;;;8.72;30.41;100169.19;342516;28;1115;-69
2022/03/09 00:22:51;;;;;;;17.40;9.40;;;;;;;8.73;30.39;100170.88;342284;28;1482;-70
2022/03/09 00:23:03;;;;;;;17.25;9.85;;;;;;;8.70;30.73;100164.03;342654;28;1380;-70
2022/03/09 00:23:15;;;;;;;19.63;9.88;;;;;;;8.75;30.44;100174.31;342405;28;1048;-70
2022/03/09 00:23:27;;;;;;;19.30;9.63;;;;;;;8.79;30.35;100173.38;341816;28;1584;-70
2022/03/09 00:23:40;;;;;;;21.58;9.50;;;;;;;8.77;30.94;100169.94;340774;28;1252;-70
2022/03/09 00:23:52;;;;;;;19.60;9.57;;;;;;;8.80;30.93;100181.13;340925;28;1104;-69
2022/03/09 00:24:04;;;;;;;24.88;9.90;;;;;;;8.76;30.45;100174.28;341105;28;1295;-70
2022/03/09 00:24:18;;;;;;;25.58;9.85;;;;;;;8.69;30.59;100175.28;341305;28;1127;-70
2022/03/09 00:24:32;;;;;;;21.40;9.57;;;;;;;8.58;31.24;100170.25;342319;28;1356;-70
2022/03/09 00:24:44;;;;;;;18.92;9.82;;;;;;;8.76;30.87;100173.44;342332;28;1079;-70
2022/03/09 00:24:56;;;;;;;18.27;9.80;;;;;;;8.86;30.22;100174.16;342410;28;1643;-70
2022/03/09 00:25:08;;;;;;;16.48;9.68;;;;;;;8.94;30.45;100167.09;342231;28;1070;-69
2022/03/09 00:25:20;;;;;;;18.63;9.27;;;;;;;9.04;30.22;100168.63;342118;28;1021;-69
2022/03/09 00:25:32;;;;;;;20.00;9.32;;;;;;;9.11;29.83;100175.41;342268;28;1076;-70
2022/03/09 00:25:44;;;;;;;18.30;9.10;;;;;;;9.14;29.88;100164.97;342240;28;1079;-69
2022/03/09 00:25:56;;;;;;;18.27;8.95;;;;;;;9.22;29.76;100171.78;342064;28;1392;-69
2022/03/09 00:26:08;;;;;;;18.30;9.48;;;;;;;9.26;30.26;100163.06;342805;28;1953;-69
2022/03/09 00:26:21;;;;;;;18.35;9.52;;;;;;;9.24;30.34;100167.41;343539;28;1453;-69
2022/03/09 00:26:33;;;;;;;18.80;9.32;;;;;;;9.29;30.30;100163.81;342194;28;1056;-69
2022/03/09 00:26:46;;;;;;;16.40;8.85;;;;;;;9.25;30.44;100166.53;342221;28;1071;-70
2022/03/09 00:26:59;;;;;;;15.95;8.57;;;;;;;9.14;30.80;100170.16;342044;28;1262;-70
2022/03/09 00:27:11;;;;;;;16.70;9.02;;;;;;;9.18;30.35;100166.63;341991;28;1789;-69
2022/03/09 00:27:23;;;;;;;16.63;9.38;;;;;;;9.29;29.98;100166.41;342316;28;1456;-70
2022/03/09 00:27:35;;;;;;;16.92;9.25;;;;;;;9.34;30.25;100161.16;342336;28;1046;-69
2022/03/09 00:27:48;;;;;;;16.42;9.15;;;;;;;9.40;30.05;100161.03;343415;28;1530;-69
2022/03/09 00:28:00;;;;;;;15.93;9.00;;;;;;;9.48;29.58;100163.50;343702;28;1298;-69
2022/03/09 00:28:14;;;;;;;15.98;9.00;;;;;;;9.52;29.96;100158.19;343672;28;1907;-69
2022/03/09 00:28:26;;;;;;;17.33;9.60;;;;;;;9.53;29.71;100162.50;343114;28;1572;-70
2022/03/09 00:28:45;;;;;;;17.73;10.27;;;;;;;9.47;30.12;100157.44;342271;28;1088;-69
2022/03/09 00:28:59;;;;;;;17.67;9.85;;;;;;;9.25;30.45;100166.53;342405;28;1117;-69
2022/03/09 00:29:11;;;;;;;18.10;9.43;;;;;;;9.11;30.53;100167.63;342229;28;1042;-69
2022/03/09 00:29:22;;;;;;;17.20;9.13;;;;;;;9.02;30.72;100167.81;342644;28;1240;-69
2022/03/09 00:29:35;;;;;;;17.45;9.18;;;;;;;8.98;30.94;100163.56;342494;28;1027;-70
2022/03/09 00:29:47;;;;;;;17.45;9.40;;;;;;;9.10;30.24;100162.47;342476;28;1071;-69
2022/03/09 00:29:59;;;;;;;17.27;9.45;;;;;;;9.09;30.66;100164.19;342219;28;1260;-69
2022/03/09 00:30:11;;;;;;;15.75;9.18;;;;;;;9.20;30.65;100166.63;342472;28;1155;-69
2022/03/09 00:30:23;;;;;;;15.70;8.73;;;;;;;9.25;30.39;100162.19;342525;28;1083;-69
2022/03/09 00:30:35;;;;;;;16.05;9.00;;;;;;;9.28;29.79;100156.09;342400;28;1090;-70
2022/03/09 00:30:47;;;;;;;16.45;9.32;;;;;;;9.32;30.20;100162.94;343200;28;1826;-69
2022/03/09 00:30:59;;;;;;;16.23;9.60;;;;;;;9.34;29.77;100161.16;343522;28;1091;-70
2022/03/09 00:31:11;;;;;;;16.02;9.63;;;;;;;9.35;30.28;100163.72;343662;28;1510;-70
2022/03/09 00:31:23;;;;;;;16.08;9.57;;;;;;;9.44;30.08;100165.28;343402;28;1132;-70
2022/03/09 00:31:36;;;;;;;16.00;9.07;;;;;;;9.49;29.71;100160.00;343543;28;1091;-70
2022/03/09 00:31:48;;;;;;;17.25;9.20;;;;;;;9.55;29.66;100155.53;343682;28;1023;-70
2022/03/09 00:32:00;;;;;;;16.23;9.50;;;;;;;9.50;30.14;100157.38;343541;28;1071;-70
2022/03/09 00:32:13;;;;;;;16.58;9.75;;;;;;;9.54;29.54;100153.84;343663;28;1076;-69
2022/03/09 00:32:25;;;;;;;16.23;9.57;;;;;;;9.56;29.75;100154.66;342708;28;2505;-70
2022/03/09 00:32:39;;;;;;;16.27;9.32;;;;;;;9.60;29.45;100164.09;343666;28;1144;-69
2022/03/09 00:32:51;;;;;;;15.27;8.60;;;;;;;9.64;29.75;100158.81;342903;28;1249;-69
2022/03/09 00:33:03;;;;;;;15.23;8.48;;;;;;;9.70;29.15;100154.38;342216;28;1389;-69
2022/03/09 00:33:35;;;;;;;18.90;9.40;;;;;;;9.62;29.14;100158.88;340987;28;1443;-69
2022/03/09 00:33:47;;;;;;;18.98;9.45;;;;;;;9.67;29.31;100159.63;340783;28;1046;-70
2022/03/09 00:33:59;;;;;;;17.02;9.18;;;;;;;9.60;29.59;100158.91;341784;28;1101;-70
2022/03/09 00:34:11;;;;;;;16.05;9.02;;;;;;;9.67;29.49;100153.59;342634;28;1254;-70
2022/03/09 00:34:23;;;;;;;15.35;8.70;;;;;;;9.71;29.28;100150.03;341774;28;1907;-70
2022/03/09 00:34:35;;;;;;;16.63;8.80;;;;;;;9.53;29.63;100156.47;342651;28;1169;-70
2022/03/09 00:34:47;;;;;;;17.77;9.38;;;;;;;9.52;29.44;100157.34;342074;28;1054;-70
2022/03/09 00:34:59;;;;;;;18.25;9.63;;;;;;;9.38;29.21;100168.84;342644;28;1192;-70
2022/03/09 00:35:11;;;;;;;17.33;9.43;;;;;;;9.34;29.39;100159.41;342655;28;1350;-70
2022/03/09 00:35:23;;;;;;;17.88;9.15;;;;;;;9.30;29.23;100162.13;342364;28;1573;-70
2022/03/09 00:35:39;;;;;;;17.50;9.05;;;;;;;9.07;29.46;100158.19;343122;28;1832;-70
2022/03/09 00:35:52;;;;;;;17.58;9.20;;;;;;;9.12;29.37;100156.38;343963;28;1235;-70
2022/03/09 00:36:05;;;;;;;15.52;8.90;;;;;;;9.17;29.52;100157.13;343964;28;1173;-70
2022/03/09 00:36:18;;;;;;;15.73;8.55;;;;;;;9.29;29.66;100160.38;344058;28;1066;-70
2022/03/09 00:36:32;;;;;;;16.45;8.20;;;;;;;9.02;30.03;100154.84;344044;28;1082;-70
2022/03/09 00:36:45;;;;;;;16.35;8.30;;;;;;;8.86;30.32;100158.59;343990;28;1176;-70
2022/03/09 00:36:57;;;;;;;15.40;8.82;;;;;;;8.72;30.45;100164.84;343958;28;1057;-70
2022/03/09 00:37:08;;;;;;;15.68;9.00;;;;;;;8.60;30.44;100165.06;343416;28;1567;-70
2022/03/09 00:37:20;;;;;;;15.45;8.68;;;;;;;8.60;30.22;100155.53;342657;28;951;-70
2022/03/09 00:37:32;;;;;;;16.35;8.90;;;;;;;8.55;30.42;100156.50;342403;28;1046;-68
2022/03/09 00:37:44;;;;;;;16.70;8.63;;;;;;;8.50;29.86;100160.91;342206;28;1274;-68
2022/03/09 00:37:56;;;;;;;18.05;8.80;;;;;;;8.45;29.95;100162.69;342375;28;1015;-68
2022/03/09 00:38:08;;;;;;;18.42;8.60;;;;;;;8.49;30.11;100156.59;341704;28;2145;-67
2022/03/09 00:38:21;;;;;;;16.55;8.82;;;;;;;8.47;30.66;100155.75;342450;28;1313;-68
2022/03/09 00:38:33;;;;;;;16.27;8.93;;;;;;;8.50;29.93;100160.91;342282;28;1291;-70
2022/03/09 00:38:45;;;;;;;14.70;8.88;;;;;;;8.50;30.39;100166.09;342431;28;1042;-70
2022/03/09 00:38:57;;;;;;;14.73;8.57;;;;;;;8.52;30.15;100164.31;342340;28;1092;-70
2022/03/09 00:39:09;;;;;;;16.25;8.85;;;;;;;8.55;30.33;100164.25;342250;28;951;-69
2022/03/09 00:39:21;;;;;;;17.02;9.20;;;;;;;8.62;29.90;100160.72;342178;28;1577;-69
2022/03/09 00:39:33;;;;;;;16.50;9.25;;;;;;;8.57;29.61;100162.50;342274;28;1609;-69
2022/03/09 00:39:45;;;;;;;17.33;9.07;;;;;;;8.60;29.95;100159.88;342601;28;754;-69
2022/03/09 00:39:57;;;;;;;15.00;8.52;;;;;;;8.68;29.79;100160.59;342210;28;1088;-70
2022/03/09 00:40:09;;;;;;;16.25;8.80;;;;;;;8.74;29.61;100163.09;342233;28;1034;-70
2022/03/09 00:40:22;;;;;;;15.82;8.77;;;;;;;8.67;29.88;100155.44;342182;28;1024;-70
2022/03/09 00:40:34;;;;;;;15.23;8.80;;;;;;;8.65;29.40;100159.78;341979;28;1285;-69
2022/03/09 00:40:48;;;;;;;16.08;8.93;;;;;;;8.66;29.38;100162.38;342173;28;1032;-70
2022/03/09 00:41:02;;;;;;;15.50;9.23;;;;;;;8.70;29.64;100164.03;342249;28;1050;-69
2022/03/09 00:41:15;;;;;;;16.15;9.48;;;;;;;8.68;29.37;100155.41;342438;28;1296;-70
2022/03/09 00:41:27;;;;;;;17.85;9.30;;;;;;;8.71;29.64;100160.56;340738;29;1253;-70
2022/03/09 00:41:39;;;;;;;17.52;8.68;;;;;;;8.76;29.72;100163.91;341002;29;1016;-70
2022/03/09 00:41:51;;;;;;;15.40;8.25;;;;;;;8.80;29.62;100154.34;342064;28;1078;-70
2022/03/09 00:42:03;;;;;;;14.90;8.27;;;;;;;8.86;29.97;100161.19;342846;28;1727;-70
2022/03/09 00:42:15;;;;;;;14.27;8.63;;;;;;;8.84;30.67;100155.16;343930;28;1094;-69
2022/03/09 00:42:27;;;;;;;13.80;9.15;;;;;;;8.90;30.14;100157.66;342188;28;1978;-70
2022/03/09 00:42:39;;;;;;;14.35;9.23;;;;;;;8.96;29.70;100160.97;342399;28;1027;-70
2022/03/09 00:42:51;;;;;;;15.27;9.07;;;;;;;8.95;30.06;100158.41;342516;28;1306;-70
2022/03/09 00:43:03;;;;;;;15.10;8.57;;;;;;;9.04;29.64;100153.06;342053;28;1397;-70
2022/03/09 00:43:19;;;;;;;14.18;8.10;;;;;;;9.10;29.77;100160.75;342353;28;1075;-70
2022/03/09 00:43:31;;;;;;;14.23;8.10;;;;;;;9.11;29.67;100159.84;342109;28;1889;-70
2022/03/09 00:43:43;;;;;;;15.68;8.88;;;;;;;9.15;29.26;100160.63;342024;28;1514;-70
2022/03/09 00:43:55;;;;;;;16.05;9.23;;;;;;;9.22;29.54;100162.25;342278;28;1110;-70
2022/03/09 00:44:07;;;;;;;16.35;8.98;;;;;;;9.23;29.09;100157.91;342581;28;1023;-70
2022/03/09 00:44:19;;;;;;;16.13;8.68;;;;;;;9.25;29.17;100157.00;342529;28;1015;-69
2022/03/09 00:44:31;;;;;;;17.10;8.73;;;;;;;9.24;29.28;100160.47;341075;28;1258;-70
2022/03/09 00:44:44;;;;;;;16.73;8.65;;;;;;;9.20;29.04;100159.69;340982;28;1107;-69
2022/03/09 00:44:56;;;;;;;14.95;8.75;;;;;;;9.09;29.05;100164.19;341010;28;1086;-70
2022/03/09 00:45:08;;;;;;;14.85;8.80;;;;;;;9.15;29.13;100169.28;340867;28;1055;-69
2022/03/09 00:45:20;;;;;;;14.80;8.48;;;;;;;9.05;29.37;100159.94;341662;28;1589;-69
2022/03/09 00:45:32;;;;;;;14.98;8.35;;;;;;;8.84;29.06;100168.97;342293;28;1448;-70
2022/03/09 00:45:44;;;;;;;14.95;8.25;;;;;;;8.74;29.54;100165.69;342482;28;1119;-70
2022/03/09 00:45:56;;;;;;;15.48;8.52;;;;;;;8.93;29.34;100160.16;342385;28;1256;-70
2022/03/09 00:46:08;;;;;;;15.52;8.90;;;;;;;9.06;29.19;100156.50;343460;28;1134;-70
2022/03/09 00:46:22;;;;;;;15.60;8.90;;;;;;;8.95;29.78;100163.59;343415;28;1519;-70
2022/03/09 00:46:35;;;;;;;15.55;8.45;;;;;;;8.85;29.37;100172.41;343506;28;1107;-70
2022/03/09 00:46:47;;;;;;;16.80;8.50;;;;;;;8.83;29.27;100163.81;343504;28;1013;-68
2022/03/09 00:46:59;;;;;;;15.10;9.13;;;;;;;8.72;29.46;100167.44;343645;28;1514;-68
2022/03/09 00:47:12;;;;;;;14.23;9.27;;;;;;;8.76;29.57;100163.91;343507;28;1027;-70
2022/03/09 00:47:24;;;;;;;14.98;9.48;;;;;;;8.65;29.75;100168.41;343336;28;1678;-70
2022/03/09 00:47:36;;;;;;;15.93;9.45;;;;;;;8.72;29.90;100161.41;343553;28;1304;-70
2022/03/09 00:47:48;;;;;;;16.48;9.32;;;;;;;8.88;29.71;100162.84;343467;28;1048;-70
2022/03/09 00:48:00;;;;;;;16.90;9.07;;;;;;;8.85;29.65;100167.22;343460;28;1050;-70
2022/03/09 00:48:12;;;;;;;16.30;8.88;;;;;;;8.87;29.74;100161.13;342823;28;1059;-70
2022/03/09 00:48:24;;;;;;;15.95;8.73;;;;;;;8.84;29.31;100165.53;342411;28;1555;-70
2022/03/09 00:48:36;;;;;;;14.68;8.88;;;;;;;8.82;29.83;100167.31;342639;28;731;-70
2022/03/09 00:48:48;;;;;;;13.55;8.63;;;;;;;8.79;29.91;100168.19;342528;28;1113;-70
2022/03/09 00:49:01;;;;;;;14.57;8.70;;;;;;;8.82;30.23;100159.53;342155;28;1798;-70
2022/03/09 00:49:13;;;;;;;14.88;8.70;;;;;;;8.87;29.66;100165.47;342301;28;1440;-69
2022/03/09 00:49:25;;;;;;;16.40;8.93;;;;;;;8.87;29.84;100160.28;342224;28;1126;-70
2022/03/09 00:49:37;;;;;;;16.42;8.88;;;;;;;8.75;29.90;100161.34;342516;28;1076;-70
2022/03/09 00:49:49;;;;;;;15.20;9.10;;;;;;;8.63;30.57;100158.97;342381;28;1130;-70
2022/03/09 00:50:03;;;;;;;15.05;9.27;;;;;;;8.61;30.13;100164.16;342214;28;1903;-70
2022/03/09 00:50:15;;;;;;;15.13;9.25;;;;;;;8.66;29.85;100162.38;342376;28;1035;-68
2022/03/09 00:50:27;;;;;;;14.60;8.93;;;;;;;8.68;29.91;100165.78;342411;28;1528;-68
2022/03/09 00:50:39;;;;;;;15.63;9.10;;;;;;;8.75;29.72;100159.63;342428;28;1143;-68
2022/03/09 00:50:54;;;;;;;16.23;9.30;;;;;;;8.79;29.69;100163.00;342388;28;869;-68
2022/03/09 00:51:06;;;;;;;15.75;9.27;;;;;;;8.87;29.92;100160.28;342427;28;1122;-69
2022/03/09 00:51:22;;;;;;;15.23;9.07;;;;;;;8.88;29.40;100162.00;342372;28;1301;-68
2022/03/09 00:51:34;;;;;;;17.08;8.70;;;;;;;8.91;29.40;100157.59;342410;28;1067;-69
2022/03/09 00:51:46;;;;;;;18.75;8.70;;;;;;;8.88;29.89;100154.22;342281;28;1381;-69
2022/03/09 00:52:01;;;;;;;17.83;8.75;;;;;;;8.84;28.98;100160.34;342459;28;1188;-69
2022/03/09 00:52:13;;;;;;;17.48;8.93;;;;;;;8.89;29.27;100155.94;342401;28;1333;-68
2022/03/09 00:52:25;;;;;;;16.77;9.05;;;;;;;8.92;29.46;100161.06;341765;28;2280;-71
2022/03/09 00:52:37;;;;;;;17.02;8.57;;;;;;;8.95;29.32;100156.69;343619;28;1150;-68
2022/03/09 00:52:49;;;;;;;17.02;8.70;;;;;;;8.97;29.90;100156.63;341739;28;1495;-69
2022/03/09 00:53:02;;;;;;;15.50;8.68;;;;;;;8.79;29.63;100163.00;342971;28;1286;-68
2022/03/09 00:53:14;;;;;;;14.15;8.85;;;;;;;8.85;29.73;100156.88;343954;28;1070;-69
2022/03/09 00:53:26;;;;;;;16.42;9.07;;;;;;;8.86;29.59;100158.59;341788;28;1483;-69
2022/03/09 00:53:38;;;;;;;17.00;9.32;;;;;;;8.95;29.36;100155.81;341738;28;1129;-68
2022/03/09 00:53:50;;;;;;;15.85;8.98;;;;;;;8.98;28.97;100163.56;342221;28;1073;-69
2022/03/09 00:54:03;;;;;;;16.65;9.18;;;;;;;9.04;29.50;100155.66;342289;28;1935;-69
2022/03/09 00:54:15;;;;;;;15.80;8.88;;;;;;;9.03;29.32;100156.53;342465;28;1063;-69
2022/03/09 00:54:27;;;;;;;13.27;8.73;;;;;;;9.04;28.92;100155.66;342118;28;1652;-70
2022/03/09 00:54:39;;;;;;;13.20;8.48;;;;;;;9.12;28.80;100151.19;342237;28;1035;-69
2022/03/09 00:54:51;;;;;;;14.48;8.88;;;;;;;9.18;29.29;100158.84;342339;28;1218;-69
2022/03/09 00:55:04;;;;;;;16.48;9.05;;;;;;;9.26;28.89;100155.28;343297;28;1814;-69
2022/03/09 00:55:16;;;;;;;16.73;9.23;;;;;;;9.32;29.04;100152.56;343886;28;1298;-69
2022/03/09 00:55:28;;;;;;;16.20;8.98;;;;;;;9.39;28.61;100156.72;342553;28;1432;-69
2022/03/09 00:55:40;;;;;;;17.08;8.73;;;;;;;9.47;28.73;100154.84;342187;28;1303;-69
2022/03/09 00:55:52;;;;;;;17.70;8.52;;;;;;;9.50;28.45;100154.78;342244;28;1150;-69
2022/03/09 00:56:04;;;;;;;16.10;8.40;;;;;;;9.52;28.45;100155.59;342476;28;1308;-69
2022/03/09 00:56:18;;;;;;;14.90;8.57;;;;;;;9.56;28.35;100152.06;342402;28;1274;-69
2022/03/09 00:56:30;;;;;;;15.90;8.73;;;;;;;9.61;28.23;100154.56;341830;28;1372;-69
2022/03/09 00:56:42;;;;;;;16.38;8.73;;;;;;;9.62;28.42;100147.63;342690;28;746;-69
2022/03/09 00:56:54;;;;;;;15.85;8.57;;;;;;;9.62;28.22;100151.09;342610;28;1122;-69
2022/03/09 00:57:06;;;;;;;13.93;8.48;;;;;;;9.65;27.89;100158.78;342395;28;1273;-69
2022/03/09 00:57:18;;;;;;;13.95;8.68;;;;;;;9.69;28.18;100157.00;342432;28;1208;-69
2022/03/09 00:57:30;;;;;;;13.82;8.40;;;;;;;9.70;28.26;100154.38;342408;28;1530;-69
2022/03/09 00:57:42;;;;;;;13.75;8.05;;;;;;;9.73;28.23;100153.44;342410;28;1062;-69
2022/03/09 00:57:54;;;;;;;14.13;8.05;;;;;;;9.78;28.12;100151.63;342380;28;1054;-69
2022/03/09 00:58:06;;;;;;;15.35;8.13;;;;;;;9.72;27.99;100156.94;342318;28;1261;-69
2022/03/09 00:58:18;;;;;;;16.35;8.70;;;;;;;9.75;27.80;100154.28;343729;28;1078;-69
2022/03/09 00:58:30;;;;;;;16.92;9.13;;;;;;;9.52;28.41;100150.41;342581;28;1705;-69
2022/03/09 00:58:42;;;;;;;15.57;9.10;;;;;;;9.46;28.17;100154.88;342207;28;1051;-69
2022/03/09 00:58:54;;;;;;;15.63;8.88;;;;;;;9.44;28.33;100152.31;342406;28;1066;-69
2022/03/09 00:59:06;;;;;;;14.40;8.30;;;;;;;9.36;28.45;100157.66;342166;28;1273;-69